sensor_id;sensor_type;location;lat;lon;timestamp;P1;durP1;ratioP1;P2;durP2;ratioP2
353;SDS011;165;53.592;10.044;2023-03-21T00:01:30;22.77;;;18.97;;
353;SDS011;165;53.592;10.044;2023-03-21T00:03:55;19.13;;;16.60;;
353;SDS011;165;53.592;10.044;2023-03-21T00:06:21;22.57;;;17.90;;
353;SDS011;165;53.592;10.044;2023-03-21T00:08:46;22.70;;;18.40;;
353;SDS011;165;53.592;10.044;2023-03-21T00:11:12;24.37;;;19.77;;
353;SDS011;165;53.592;10.044;2023-03-21T00:13:38;24.63;;;20.00;;
353;SDS011;165;53.592;10.044;2023-03-21T00:16:08;25.27;;;19.37;;
353;SDS011;165;53.592;10.044;2023-03-21T00:18:36;22.40;;;19.33;;
353;SDS011;165;53.592;10.044;2023-03-21T00:21:02;22.10;;;18.10;;
353;SDS011;165;53.592;10.044;2023-03-21T00:23:29;25.33;;;19.33;;
353;SDS011;165;53.592;10.044;2023-03-21T00:25:55;27.50;;;19.67;;
353;SDS011;165;53.592;10.044;2023-03-21T00:28:22;23.73;;;18.40;;
353;SDS011;165;53.592;10.044;2023-03-21T00:30:48;26.80;;;19.00;;
353;SDS011;165;53.592;10.044;2023-03-21T00:33:14;24.50;;;19.43;;
353;SDS011;165;53.592;10.044;2023-03-21T00:35:40;24.00;;;20.20;;
353;SDS011;165;53.592;10.044;2023-03-21T00:38:06;26.73;;;21.47;;
353;SDS011;165;53.592;10.044;2023-03-21T00:40:32;27.67;;;21.67;;
353;SDS011;165;53.592;10.044;2023-03-21T00:42:57;30.13;;;22.30;;
353;SDS011;165;53.592;10.044;2023-03-21T00:45:22;30.37;;;23.63;;
353;SDS011;165;53.592;10.044;2023-03-21T00:47:48;29.43;;;22.10;;
353;SDS011;165;53.592;10.044;2023-03-21T00:50:13;29.40;;;22.10;;
353;SDS011;165;53.592;10.044;2023-03-21T00:52:39;29.27;;;23.10;;
353;SDS011;165;53.592;10.044;2023-03-21T00:55:05;33.40;;;24.40;;
353;SDS011;165;53.592;10.044;2023-03-21T00:57:31;33.77;;;24.70;;
353;SDS011;165;53.592;10.044;2023-03-21T00:59:56;29.50;;;24.00;;
353;SDS011;165;53.592;10.044;2023-03-21T01:02:22;33.37;;;24.20;;
353;SDS011;165;53.592;10.044;2023-03-21T01:04:48;34.00;;;24.57;;
353;SDS011;165;53.592;10.044;2023-03-21T01:07:13;32.30;;;24.23;;
353;SDS011;165;53.592;10.044;2023-03-21T01:09:39;34.43;;;24.93;;
353;SDS011;165;53.592;10.044;2023-03-21T01:12:04;34.57;;;24.80;;
353;SDS011;165;53.592;10.044;2023-03-21T01:14:30;31.63;;;23.87;;
353;SDS011;165;53.592;10.044;2023-03-21T01:16:55;34.57;;;25.27;;
353;SDS011;165;53.592;10.044;2023-03-21T01:19:22;32.77;;;23.40;;
353;SDS011;165;53.592;10.044;2023-03-21T01:21:48;31.70;;;24.87;;
353;SDS011;165;53.592;10.044;2023-03-21T01:24:14;38.63;;;25.90;;
353;SDS011;165;53.592;10.044;2023-03-21T01:26:39;45.53;;;27.33;;
353;SDS011;165;53.592;10.044;2023-03-21T01:29:04;34.97;;;26.63;;
353;SDS011;165;53.592;10.044;2023-03-21T01:31:30;37.90;;;26.43;;
353;SDS011;165;53.592;10.044;2023-03-21T01:33:56;32.97;;;25.50;;
353;SDS011;165;53.592;10.044;2023-03-21T01:36:22;33.30;;;26.10;;
353;SDS011;165;53.592;10.044;2023-03-21T01:38:50;36.83;;;26.00;;
353;SDS011;165;53.592;10.044;2023-03-21T01:41:29;34.40;;;25.60;;
353;SDS011;165;53.592;10.044;2023-03-21T01:43:56;41.57;;;28.60;;
353;SDS011;165;53.592;10.044;2023-03-21T01:46:33;38.60;;;28.17;;
353;SDS011;165;53.592;10.044;2023-03-21T01:49:05;35.67;;;25.50;;
353;SDS011;165;53.592;10.044;2023-03-21T01:51:35;38.00;;;27.63;;
353;SDS011;165;53.592;10.044;2023-03-21T01:54:04;38.83;;;28.73;;
353;SDS011;165;53.592;10.044;2023-03-21T01:56:36;34.77;;;27.23;;
353;SDS011;165;53.592;10.044;2023-03-21T01:59:04;40.37;;;28.37;;
353;SDS011;165;53.592;10.044;2023-03-21T02:01:38;42.30;;;30.60;;
353;SDS011;165;53.592;10.044;2023-03-21T02:04:04;39.10;;;28.73;;
353;SDS011;165;53.592;10.044;2023-03-21T02:09:08;43.40;;;29.57;;
353;SDS011;165;53.592;10.044;2023-03-21T02:11:37;42.67;;;29.57;;
353;SDS011;165;53.592;10.044;2023-03-21T02:14:03;40.50;;;29.57;;
353;SDS011;165;53.592;10.044;2023-03-21T02:16:45;42.07;;;29.77;;
353;SDS011;165;53.592;10.044;2023-03-21T02:25:05;37.50;;;27.90;;
353;SDS011;165;53.592;10.044;2023-03-21T02:28:02;37.63;;;26.40;;
353;SDS011;165;53.592;10.044;2023-03-21T02:30:37;35.40;;;26.70;;
353;SDS011;165;53.592;10.044;2023-03-21T02:33:36;34.83;;;26.47;;
353;SDS011;165;53.592;10.044;2023-03-21T02:36:27;36.33;;;26.77;;
353;SDS011;165;53.592;10.044;2023-03-21T02:39:14;32.03;;;24.83;;
353;SDS011;165;53.592;10.044;2023-03-21T02:42:14;37.57;;;27.17;;
353;SDS011;165;53.592;10.044;2023-03-21T02:45:04;37.43;;;26.90;;
353;SDS011;165;53.592;10.044;2023-03-21T02:47:38;39.03;;;28.30;;
353;SDS011;165;53.592;10.044;2023-03-21T02:50:09;35.83;;;27.00;;
353;SDS011;165;53.592;10.044;2023-03-21T02:52:36;34.97;;;23.87;;
353;SDS011;165;53.592;10.044;2023-03-21T02:55:03;37.70;;;26.67;;
353;SDS011;165;53.592;10.044;2023-03-21T02:57:33;39.73;;;28.20;;
353;SDS011;165;53.592;10.044;2023-03-21T02:59:58;37.97;;;26.53;;
353;SDS011;165;53.592;10.044;2023-03-21T03:02:26;36.37;;;27.87;;
353;SDS011;165;53.592;10.044;2023-03-21T03:04:52;38.50;;;27.37;;
353;SDS011;165;53.592;10.044;2023-03-21T03:07:22;37.10;;;26.67;;
353;SDS011;165;53.592;10.044;2023-03-21T03:18:27;38.77;;;28.07;;
353;SDS011;165;53.592;10.044;2023-03-21T03:26:18;40.57;;;29.30;;
353;SDS011;165;53.592;10.044;2023-03-21T03:28:48;36.90;;;26.80;;
353;SDS011;165;53.592;10.044;2023-03-21T03:31:17;38.17;;;27.90;;
353;SDS011;165;53.592;10.044;2023-03-21T03:33:48;37.57;;;27.90;;
353;SDS011;165;53.592;10.044;2023-03-21T03:36:15;37.70;;;27.47;;
353;SDS011;165;53.592;10.044;2023-03-21T03:38:42;35.23;;;27.20;;
353;SDS011;165;53.592;10.044;2023-03-21T03:41:16;38.53;;;27.07;;
353;SDS011;165;53.592;10.044;2023-03-21T03:43:45;37.90;;;26.90;;
353;SDS011;165;53.592;10.044;2023-03-21T03:46:18;39.97;;;28.37;;
353;SDS011;165;53.592;10.044;2023-03-21T03:49:04;40.37;;;26.47;;
353;SDS011;165;53.592;10.044;2023-03-21T03:51:56;34.23;;;25.33;;
353;SDS011;165;53.592;10.044;2023-03-21T03:54:32;35.07;;;25.93;;
353;SDS011;165;53.592;10.044;2023-03-21T03:57:07;34.20;;;24.87;;
353;SDS011;165;53.592;10.044;2023-03-21T03:59:37;38.77;;;28.50;;
353;SDS011;165;53.592;10.044;2023-03-21T04:02:04;35.63;;;25.87;;
353;SDS011;165;53.592;10.044;2023-03-21T04:04:29;32.93;;;25.30;;
353;SDS011;165;53.592;10.044;2023-03-21T04:06:55;35.90;;;27.73;;
353;SDS011;165;53.592;10.044;2023-03-21T04:09:20;38.27;;;28.40;;
353;SDS011;165;53.592;10.044;2023-03-21T04:11:46;38.80;;;28.73;;
353;SDS011;165;53.592;10.044;2023-03-21T04:14:12;40.43;;;28.57;;
353;SDS011;165;53.592;10.044;2023-03-21T04:16:37;39.83;;;30.50;;
353;SDS011;165;53.592;10.044;2023-03-21T04:19:03;41.67;;;29.60;;
353;SDS011;165;53.592;10.044;2023-03-21T04:21:28;35.83;;;26.77;;
353;SDS011;165;53.592;10.044;2023-03-21T04:23:54;39.07;;;28.43;;
353;SDS011;165;53.592;10.044;2023-03-21T04:26:20;42.73;;;29.57;;
353;SDS011;165;53.592;10.044;2023-03-21T04:28:47;39.70;;;30.57;;
353;SDS011;165;53.592;10.044;2023-03-21T04:31:13;38.03;;;27.87;;
353;SDS011;165;53.592;10.044;2023-03-21T04:33:38;38.87;;;28.90;;
353;SDS011;165;53.592;10.044;2023-03-21T04:36:05;39.57;;;28.27;;
353;SDS011;165;53.592;10.044;2023-03-21T04:38:31;39.90;;;27.93;;
353;SDS011;165;53.592;10.044;2023-03-21T04:40:57;39.43;;;28.13;;
353;SDS011;165;53.592;10.044;2023-03-21T04:43:22;38.17;;;27.20;;
353;SDS011;165;53.592;10.044;2023-03-21T04:45:48;38.80;;;28.83;;
353;SDS011;165;53.592;10.044;2023-03-21T04:48:14;36.17;;;26.83;;
353;SDS011;165;53.592;10.044;2023-03-21T04:50:39;40.50;;;29.77;;
353;SDS011;165;53.592;10.044;2023-03-21T04:53:05;39.40;;;29.53;;
353;SDS011;165;53.592;10.044;2023-03-21T04:55:30;35.30;;;26.90;;
353;SDS011;165;53.592;10.044;2023-03-21T04:57:56;43.60;;;30.37;;
353;SDS011;165;53.592;10.044;2023-03-21T05:00:21;38.43;;;28.60;;
353;SDS011;165;53.592;10.044;2023-03-21T05:02:47;37.37;;;27.57;;
353;SDS011;165;53.592;10.044;2023-03-21T05:05:12;35.20;;;26.10;;
353;SDS011;165;53.592;10.044;2023-03-21T05:07:38;35.90;;;27.60;;
353;SDS011;165;53.592;10.044;2023-03-21T05:10:05;37.83;;;28.40;;
353;SDS011;165;53.592;10.044;2023-03-21T05:12:33;37.77;;;27.53;;
353;SDS011;165;53.592;10.044;2023-03-21T05:14:58;36.90;;;26.70;;
353;SDS011;165;53.592;10.044;2023-03-21T05:17:24;37.43;;;28.07;;
353;SDS011;165;53.592;10.044;2023-03-21T05:19:50;38.70;;;26.90;;
353;SDS011;165;53.592;10.044;2023-03-21T05:22:15;37.53;;;27.00;;
353;SDS011;165;53.592;10.044;2023-03-21T05:24:41;36.17;;;27.67;;
353;SDS011;165;53.592;10.044;2023-03-21T05:27:06;35.23;;;27.50;;
353;SDS011;165;53.592;10.044;2023-03-21T05:29:32;35.30;;;27.40;;
353;SDS011;165;53.592;10.044;2023-03-21T05:31:58;40.03;;;29.50;;
353;SDS011;165;53.592;10.044;2023-03-21T05:34:24;38.77;;;29.20;;
353;SDS011;165;53.592;10.044;2023-03-21T05:36:50;39.10;;;28.97;;
353;SDS011;165;53.592;10.044;2023-03-21T05:39:16;42.97;;;30.97;;
353;SDS011;165;53.592;10.044;2023-03-21T05:41:42;42.87;;;30.63;;
353;SDS011;165;53.592;10.044;2023-03-21T05:44:08;38.73;;;29.83;;
353;SDS011;165;53.592;10.044;2023-03-21T05:46:33;42.30;;;30.53;;
353;SDS011;165;53.592;10.044;2023-03-21T05:48:59;43.77;;;31.57;;
353;SDS011;165;53.592;10.044;2023-03-21T05:51:24;44.13;;;30.33;;
353;SDS011;165;53.592;10.044;2023-03-21T05:53:50;44.80;;;30.97;;
353;SDS011;165;53.592;10.044;2023-03-21T05:56:15;40.80;;;29.60;;
353;SDS011;165;53.592;10.044;2023-03-21T05:58:41;44.83;;;30.93;;
353;SDS011;165;53.592;10.044;2023-03-21T06:01:06;42.13;;;31.20;;
353;SDS011;165;53.592;10.044;2023-03-21T06:03:32;44.00;;;32.30;;
353;SDS011;165;53.592;10.044;2023-03-21T06:05:57;43.07;;;33.37;;
353;SDS011;165;53.592;10.044;2023-03-21T06:08:23;45.20;;;32.13;;
353;SDS011;165;53.592;10.044;2023-03-21T06:10:48;43.20;;;31.83;;
353;SDS011;165;53.592;10.044;2023-03-21T06:13:14;46.80;;;33.60;;
353;SDS011;165;53.592;10.044;2023-03-21T06:15:39;46.53;;;32.83;;
353;SDS011;165;53.592;10.044;2023-03-21T06:18:05;51.00;;;37.80;;
353;SDS011;165;53.592;10.044;2023-03-21T06:20:31;50.60;;;36.70;;
353;SDS011;165;53.592;10.044;2023-03-21T06:22:56;50.03;;;36.20;;
353;SDS011;165;53.592;10.044;2023-03-21T06:25:22;51.63;;;36.40;;
353;SDS011;165;53.592;10.044;2023-03-21T06:27:47;62.13;;;44.80;;
353;SDS011;165;53.592;10.044;2023-03-21T06:30:13;54.20;;;37.13;;
353;SDS011;165;53.592;10.044;2023-03-21T06:32:39;52.40;;;37.33;;
353;SDS011;165;53.592;10.044;2023-03-21T06:35:07;49.23;;;35.17;;
353;SDS011;165;53.592;10.044;2023-03-21T06:37:33;49.07;;;34.90;;
353;SDS011;165;53.592;10.044;2023-03-21T06:39:58;51.83;;;35.90;;
353;SDS011;165;53.592;10.044;2023-03-21T06:42:24;53.33;;;36.77;;
353;SDS011;165;53.592;10.044;2023-03-21T06:44:49;56.70;;;38.10;;
353;SDS011;165;53.592;10.044;2023-03-21T06:47:14;50.50;;;35.97;;
353;SDS011;165;53.592;10.044;2023-03-21T06:49:40;56.90;;;39.17;;
353;SDS011;165;53.592;10.044;2023-03-21T06:52:05;61.03;;;39.37;;
353;SDS011;165;53.592;10.044;2023-03-21T06:54:31;53.93;;;37.57;;
353;SDS011;165;53.592;10.044;2023-03-21T06:56:57;54.43;;;38.47;;
353;SDS011;165;53.592;10.044;2023-03-21T06:59:22;57.23;;;37.17;;
353;SDS011;165;53.592;10.044;2023-03-21T07:01:47;58.63;;;39.63;;
353;SDS011;165;53.592;10.044;2023-03-21T07:04:13;57.03;;;41.60;;
353;SDS011;165;53.592;10.044;2023-03-21T07:06:39;54.67;;;37.60;;
353;SDS011;165;53.592;10.044;2023-03-21T07:09:04;57.13;;;37.50;;
353;SDS011;165;53.592;10.044;2023-03-21T07:11:30;57.83;;;40.20;;
353;SDS011;165;53.592;10.044;2023-03-21T07:13:56;63.77;;;40.70;;
353;SDS011;165;53.592;10.044;2023-03-21T07:16:22;61.33;;;41.33;;
353;SDS011;165;53.592;10.044;2023-03-21T07:18:48;59.40;;;39.50;;
353;SDS011;165;53.592;10.044;2023-03-21T07:21:13;56.23;;;37.27;;
353;SDS011;165;53.592;10.044;2023-03-21T07:23:38;53.77;;;38.87;;
353;SDS011;165;53.592;10.044;2023-03-21T07:26:04;54.30;;;38.90;;
353;SDS011;165;53.592;10.044;2023-03-21T07:28:30;56.30;;;40.30;;
353;SDS011;165;53.592;10.044;2023-03-21T07:30:57;50.60;;;35.67;;
353;SDS011;165;53.592;10.044;2023-03-21T07:33:25;58.73;;;38.50;;
353;SDS011;165;53.592;10.044;2023-03-21T07:35:51;50.57;;;36.93;;
353;SDS011;165;53.592;10.044;2023-03-21T07:38:18;51.40;;;35.70;;
353;SDS011;165;53.592;10.044;2023-03-21T07:40:45;50.10;;;36.27;;
353;SDS011;165;53.592;10.044;2023-03-21T07:43:11;54.93;;;37.40;;
353;SDS011;165;53.592;10.044;2023-03-21T07:45:37;56.37;;;38.10;;
353;SDS011;165;53.592;10.044;2023-03-21T07:48:03;51.10;;;38.47;;
353;SDS011;165;53.592;10.044;2023-03-21T07:50:29;52.70;;;36.07;;
353;SDS011;165;53.592;10.044;2023-03-21T07:52:54;45.80;;;34.73;;
353;SDS011;165;53.592;10.044;2023-03-21T07:55:20;51.87;;;34.30;;
353;SDS011;165;53.592;10.044;2023-03-21T07:57:48;43.70;;;33.93;;
353;SDS011;165;53.592;10.044;2023-03-21T08:00:14;40.80;;;31.57;;
353;SDS011;165;53.592;10.044;2023-03-21T08:02:40;43.90;;;31.90;;
353;SDS011;165;53.592;10.044;2023-03-21T08:05:06;41.70;;;32.40;;
353;SDS011;165;53.592;10.044;2023-03-21T08:07:31;39.63;;;31.07;;
353;SDS011;165;53.592;10.044;2023-03-21T08:09:57;41.07;;;32.27;;
353;SDS011;165;53.592;10.044;2023-03-21T08:12:22;40.40;;;31.10;;
353;SDS011;165;53.592;10.044;2023-03-21T08:14:48;40.13;;;32.27;;
353;SDS011;165;53.592;10.044;2023-03-21T08:17:14;36.00;;;29.27;;
353;SDS011;165;53.592;10.044;2023-03-21T08:19:40;47.00;;;33.77;;
353;SDS011;165;53.592;10.044;2023-03-21T08:22:05;43.00;;;32.10;;
353;SDS011;165;53.592;10.044;2023-03-21T08:24:31;43.07;;;31.77;;
353;SDS011;165;53.592;10.044;2023-03-21T08:26:57;44.30;;;33.47;;
353;SDS011;165;53.592;10.044;2023-03-21T08:29:22;43.97;;;32.17;;
353;SDS011;165;53.592;10.044;2023-03-21T08:31:48;47.80;;;33.70;;
353;SDS011;165;53.592;10.044;2023-03-21T08:34:13;50.13;;;34.23;;
353;SDS011;165;53.592;10.044;2023-03-21T08:36:38;41.80;;;32.30;;
353;SDS011;165;53.592;10.044;2023-03-21T08:39:04;47.07;;;33.40;;
353;SDS011;165;53.592;10.044;2023-03-21T08:41:30;43.37;;;33.80;;
353;SDS011;165;53.592;10.044;2023-03-21T08:43:57;44.67;;;33.43;;
353;SDS011;165;53.592;10.044;2023-03-21T08:46:23;49.90;;;37.00;;
353;SDS011;165;53.592;10.044;2023-03-21T08:48:48;42.70;;;31.20;;
353;SDS011;165;53.592;10.044;2023-03-21T08:51:14;43.23;;;34.00;;
353;SDS011;165;53.592;10.044;2023-03-21T08:53:39;45.60;;;32.03;;
353;SDS011;165;53.592;10.044;2023-03-21T08:56:04;45.50;;;32.83;;
353;SDS011;165;53.592;10.044;2023-03-21T08:58:30;43.53;;;33.33;;
353;SDS011;165;53.592;10.044;2023-03-21T09:00:56;47.47;;;34.70;;
353;SDS011;165;53.592;10.044;2023-03-21T09:03:21;47.30;;;33.67;;
353;SDS011;165;53.592;10.044;2023-03-21T09:05:47;46.10;;;34.10;;
353;SDS011;165;53.592;10.044;2023-03-21T09:08:12;38.70;;;29.70;;
353;SDS011;165;53.592;10.044;2023-03-21T09:10:38;41.03;;;30.63;;
353;SDS011;165;53.592;10.044;2023-03-21T09:13:03;39.87;;;30.57;;
353;SDS011;165;53.592;10.044;2023-03-21T09:15:29;37.87;;;29.30;;
353;SDS011;165;53.592;10.044;2023-03-21T09:17:55;42.20;;;33.37;;
353;SDS011;165;53.592;10.044;2023-03-21T09:20:22;41.90;;;32.53;;
353;SDS011;165;53.592;10.044;2023-03-21T09:22:49;35.87;;;29.30;;
353;SDS011;165;53.592;10.044;2023-03-21T09:25:15;38.73;;;29.30;;
353;SDS011;165;53.592;10.044;2023-03-21T09:27:41;36.90;;;27.93;;
353;SDS011;165;53.592;10.044;2023-03-21T09:30:07;50.83;;;31.50;;
353;SDS011;165;53.592;10.044;2023-03-21T09:32:33;38.23;;;29.73;;
353;SDS011;165;53.592;10.044;2023-03-21T09:35:00;35.60;;;28.70;;
353;SDS011;165;53.592;10.044;2023-03-21T09:37:26;36.93;;;30.40;;
353;SDS011;165;53.592;10.044;2023-03-21T09:39:51;36.60;;;29.63;;
353;SDS011;165;53.592;10.044;2023-03-21T09:47:47;36.20;;;27.87;;
353;SDS011;165;53.592;10.044;2023-03-21T09:50:17;40.30;;;29.50;;
353;SDS011;165;53.592;10.044;2023-03-21T09:52:56;35.70;;;27.47;;
353;SDS011;165;53.592;10.044;2023-03-21T09:55:28;35.37;;;29.00;;
353;SDS011;165;53.592;10.044;2023-03-21T09:58:14;36.23;;;28.17;;
353;SDS011;165;53.592;10.044;2023-03-21T10:00:44;43.20;;;29.70;;
353;SDS011;165;53.592;10.044;2023-03-21T10:03:18;37.93;;;28.90;;
353;SDS011;165;53.592;10.044;2023-03-21T10:05:46;36.43;;;29.63;;
353;SDS011;165;53.592;10.044;2023-03-21T10:08:13;38.07;;;30.17;;
353;SDS011;165;53.592;10.044;2023-03-21T10:10:46;39.70;;;32.27;;
353;SDS011;165;53.592;10.044;2023-03-21T10:13:15;37.40;;;30.00;;
353;SDS011;165;53.592;10.044;2023-03-21T10:15:45;45.83;;;34.60;;
353;SDS011;165;53.592;10.044;2023-03-21T10:18:12;37.60;;;28.63;;
353;SDS011;165;53.592;10.044;2023-03-21T10:20:45;34.90;;;27.50;;
353;SDS011;165;53.592;10.044;2023-03-21T10:23:11;37.43;;;29.90;;
353;SDS011;165;53.592;10.044;2023-03-21T10:25:41;40.70;;;28.70;;
353;SDS011;165;53.592;10.044;2023-03-21T10:28:13;33.00;;;26.17;;
353;SDS011;165;53.592;10.044;2023-03-21T10:30:45;37.30;;;27.97;;
353;SDS011;165;53.592;10.044;2023-03-21T10:33:23;36.00;;;27.17;;
353;SDS011;165;53.592;10.044;2023-03-21T10:36:06;38.70;;;27.10;;
353;SDS011;165;53.592;10.044;2023-03-21T10:38:35;34.50;;;26.40;;
353;SDS011;165;53.592;10.044;2023-03-21T10:41:04;36.67;;;28.10;;
353;SDS011;165;53.592;10.044;2023-03-21T10:43:31;31.20;;;24.30;;
353;SDS011;165;53.592;10.044;2023-03-21T10:46:04;32.67;;;25.37;;
353;SDS011;165;53.592;10.044;2023-03-21T10:48:50;34.20;;;23.70;;
353;SDS011;165;53.592;10.044;2023-03-21T10:51:21;32.57;;;22.20;;
353;SDS011;165;53.592;10.044;2023-03-21T10:53:54;28.53;;;22.20;;
353;SDS011;165;53.592;10.044;2023-03-21T10:56:34;28.37;;;23.53;;
353;SDS011;165;53.592;10.044;2023-03-21T10:59:03;29.50;;;24.23;;
353;SDS011;165;53.592;10.044;2023-03-21T11:01:38;22.37;;;19.17;;
353;SDS011;165;53.592;10.044;2023-03-21T11:04:13;32.77;;;25.27;;
353;SDS011;165;53.592;10.044;2023-03-21T11:06:50;26.47;;;21.83;;
353;SDS011;165;53.592;10.044;2023-03-21T11:09:19;35.90;;;23.90;;
353;SDS011;165;53.592;10.044;2023-03-21T11:12:02;31.13;;;23.67;;
353;SDS011;165;53.592;10.044;2023-03-21T11:14:40;31.57;;;24.03;;
353;SDS011;165;53.592;10.044;2023-03-21T11:19:48;49.40;;;36.07;;
353;SDS011;165;53.592;10.044;2023-03-21T11:22:21;36.17;;;26.00;;
353;SDS011;165;53.592;10.044;2023-03-21T11:24:59;31.30;;;22.10;;
353;SDS011;165;53.592;10.044;2023-03-21T11:27:26;29.77;;;23.20;;
353;SDS011;165;53.592;10.044;2023-03-21T11:29:52;27.03;;;22.70;;
353;SDS011;165;53.592;10.044;2023-03-21T11:32:25;33.97;;;24.53;;
353;SDS011;165;53.592;10.044;2023-03-21T11:34:59;33.10;;;24.23;;
353;SDS011;165;53.592;10.044;2023-03-21T11:37:44;35.67;;;26.40;;
353;SDS011;165;53.592;10.044;2023-03-21T11:40:21;37.77;;;27.70;;
353;SDS011;165;53.592;10.044;2023-03-21T11:42:51;35.83;;;26.63;;
353;SDS011;165;53.592;10.044;2023-03-21T11:45:22;36.03;;;26.70;;
353;SDS011;165;53.592;10.044;2023-03-21T11:47:51;34.30;;;27.03;;
353;SDS011;165;53.592;10.044;2023-03-21T11:50:20;34.67;;;26.07;;
353;SDS011;165;53.592;10.044;2023-03-21T11:53:06;32.93;;;25.23;;
353;SDS011;165;53.592;10.044;2023-03-21T11:55:46;35.07;;;25.23;;
353;SDS011;165;53.592;10.044;2023-03-21T12:01:34;30.20;;;23.60;;
353;SDS011;165;53.592;10.044;2023-03-21T12:06:59;32.77;;;23.10;;
353;SDS011;165;53.592;10.044;2023-03-21T12:09:40;30.07;;;23.27;;
353;SDS011;165;53.592;10.044;2023-03-21T12:12:25;33.93;;;24.13;;
353;SDS011;165;53.592;10.044;2023-03-21T12:15:02;30.73;;;24.70;;
353;SDS011;165;53.592;10.044;2023-03-21T12:17:45;44.63;;;34.50;;
353;SDS011;165;53.592;10.044;2023-03-21T12:23:27;24.93;;;18.80;;
353;SDS011;165;53.592;10.044;2023-03-21T12:31:38;20.13;;;16.40;;
353;SDS011;165;53.592;10.044;2023-03-21T12:39:59;17.60;;;15.23;;
353;SDS011;165;53.592;10.044;2023-03-21T12:45:17;21.20;;;17.00;;
353;SDS011;165;53.592;10.044;2023-03-21T12:47:50;19.70;;;17.33;;
353;SDS011;165;53.592;10.044;2023-03-21T12:50:20;20.30;;;17.30;;
353;SDS011;165;53.592;10.044;2023-03-21T12:52:57;18.50;;;16.00;;
353;SDS011;165;53.592;10.044;2023-03-21T12:55:30;19.07;;;16.23;;
353;SDS011;165;53.592;10.044;2023-03-21T13:00:41;20.00;;;16.80;;
353;SDS011;165;53.592;10.044;2023-03-21T13:03:19;15.30;;;13.20;;
353;SDS011;165;53.592;10.044;2023-03-21T13:05:56;17.30;;;15.60;;
353;SDS011;165;53.592;10.044;2023-03-21T13:08:25;18.27;;;15.63;;
353;SDS011;165;53.592;10.044;2023-03-21T13:11:04;17.20;;;14.60;;
353;SDS011;165;53.592;10.044;2023-03-21T13:13:35;23.13;;;20.93;;
353;SDS011;165;53.592;10.044;2023-03-21T13:16:20;15.80;;;13.67;;
353;SDS011;165;53.592;10.044;2023-03-21T13:18:57;16.47;;;13.83;;
353;SDS011;165;53.592;10.044;2023-03-21T13:21:40;16.10;;;14.10;;
353;SDS011;165;53.592;10.044;2023-03-21T13:24:31;14.80;;;12.63;;
353;SDS011;165;53.592;10.044;2023-03-21T13:29:47;13.60;;;12.53;;
353;SDS011;165;53.592;10.044;2023-03-21T13:32:18;16.30;;;13.93;;
353;SDS011;165;53.592;10.044;2023-03-21T13:37:50;16.60;;;12.10;;
353;SDS011;165;53.592;10.044;2023-03-21T13:40:26;16.30;;;12.97;;
353;SDS011;165;53.592;10.044;2023-03-21T13:46:06;14.90;;;12.30;;
353;SDS011;165;53.592;10.044;2023-03-21T13:49:00;14.67;;;11.93;;
353;SDS011;165;53.592;10.044;2023-03-21T13:57:23;13.70;;;11.27;;
353;SDS011;165;53.592;10.044;2023-03-21T14:00:20;31.90;;;23.97;;
353;SDS011;165;53.592;10.044;2023-03-21T14:02:54;21.97;;;17.40;;
353;SDS011;165;53.592;10.044;2023-03-21T14:05:32;15.23;;;13.37;;
353;SDS011;165;53.592;10.044;2023-03-21T14:08:08;14.20;;;12.10;;
353;SDS011;165;53.592;10.044;2023-03-21T14:10:41;14.30;;;12.00;;
353;SDS011;165;53.592;10.044;2023-03-21T14:13:10;18.23;;;13.10;;
353;SDS011;165;53.592;10.044;2023-03-21T14:18:05;14.80;;;12.47;;
353;SDS011;165;53.592;10.044;2023-03-21T14:20:32;16.80;;;13.70;;
353;SDS011;165;53.592;10.044;2023-03-21T14:23:02;16.90;;;14.17;;
353;SDS011;165;53.592;10.044;2023-03-21T14:25:32;19.10;;;15.30;;
353;SDS011;165;53.592;10.044;2023-03-21T14:28:00;18.90;;;15.03;;
353;SDS011;165;53.592;10.044;2023-03-21T14:30:31;25.87;;;20.30;;
353;SDS011;165;53.592;10.044;2023-03-21T14:33:12;29.80;;;20.23;;
353;SDS011;165;53.592;10.044;2023-03-21T14:35:50;19.37;;;16.17;;
353;SDS011;165;53.592;10.044;2023-03-21T14:38:21;20.83;;;17.97;;
353;SDS011;165;53.592;10.044;2023-03-21T14:40:49;19.17;;;16.77;;
353;SDS011;165;53.592;10.044;2023-03-21T14:43:17;20.40;;;16.37;;
353;SDS011;165;53.592;10.044;2023-03-21T14:45:45;20.17;;;18.20;;
353;SDS011;165;53.592;10.044;2023-03-21T14:48:13;19.40;;;16.77;;
353;SDS011;165;53.592;10.044;2023-03-21T14:50:48;18.27;;;16.63;;
353;SDS011;165;53.592;10.044;2023-03-21T14:53:37;16.10;;;13.80;;
353;SDS011;165;53.592;10.044;2023-03-21T14:56:09;20.30;;;16.20;;
353;SDS011;165;53.592;10.044;2023-03-21T14:58:47;20.00;;;16.50;;
353;SDS011;165;53.592;10.044;2023-03-21T15:01:20;21.20;;;16.37;;
353;SDS011;165;53.592;10.044;2023-03-21T15:03:55;22.23;;;18.90;;
353;SDS011;165;53.592;10.044;2023-03-21T15:06:23;20.00;;;16.07;;
353;SDS011;165;53.592;10.044;2023-03-21T15:08:55;23.07;;;18.27;;
353;SDS011;165;53.592;10.044;2023-03-21T15:11:38;18.60;;;16.20;;
353;SDS011;165;53.592;10.044;2023-03-21T15:14:07;20.10;;;16.53;;
353;SDS011;165;53.592;10.044;2023-03-21T15:16:36;20.00;;;15.60;;
353;SDS011;165;53.592;10.044;2023-03-21T15:19:02;18.40;;;14.70;;
353;SDS011;165;53.592;10.044;2023-03-21T15:21:35;18.90;;;16.40;;
353;SDS011;165;53.592;10.044;2023-03-21T15:24:11;19.73;;;15.67;;
353;SDS011;165;53.592;10.044;2023-03-21T15:26:44;21.50;;;13.60;;
353;SDS011;165;53.592;10.044;2023-03-21T15:29:11;18.73;;;14.90;;
353;SDS011;165;53.592;10.044;2023-03-21T15:31:38;16.27;;;15.40;;
353;SDS011;165;53.592;10.044;2023-03-21T15:34:04;16.63;;;14.23;;
353;SDS011;165;53.592;10.044;2023-03-21T15:36:31;18.53;;;13.80;;
353;SDS011;165;53.592;10.044;2023-03-21T15:38:59;16.70;;;14.77;;
353;SDS011;165;53.592;10.044;2023-03-21T15:41:27;18.00;;;16.47;;
353;SDS011;165;53.592;10.044;2023-03-21T15:46:38;14.37;;;13.67;;
353;SDS011;165;53.592;10.044;2023-03-21T15:49:51;15.87;;;12.80;;
353;SDS011;165;53.592;10.044;2023-03-21T15:52:05;15.00;;;12.80;;
353;SDS011;165;53.592;10.044;2023-03-21T15:54:46;18.77;;;15.23;;
353;SDS011;165;53.592;10.044;2023-03-21T15:57:30;17.73;;;14.90;;
353;SDS011;165;53.592;10.044;2023-03-21T16:00:00;20.57;;;17.10;;
353;SDS011;165;53.592;10.044;2023-03-21T16:02:47;14.50;;;11.63;;
353;SDS011;165;53.592;10.044;2023-03-21T16:07:56;13.70;;;11.60;;
353;SDS011;165;53.592;10.044;2023-03-21T16:10:41;12.60;;;10.77;;
353;SDS011;165;53.592;10.044;2023-03-21T16:13:09;13.90;;;11.70;;
353;SDS011;165;53.592;10.044;2023-03-21T16:15:35;12.00;;;10.73;;
353;SDS011;165;53.592;10.044;2023-03-21T16:18:03;10.63;;;9.93;;
353;SDS011;165;53.592;10.044;2023-03-21T16:20:34;13.93;;;10.60;;
353;SDS011;165;53.592;10.044;2023-03-21T16:23:03;10.10;;;9.30;;
353;SDS011;165;53.592;10.044;2023-03-21T16:25:29;11.33;;;9.70;;
353;SDS011;165;53.592;10.044;2023-03-21T16:27:55;19.00;;;16.70;;
353;SDS011;165;53.592;10.044;2023-03-21T16:30:21;16.60;;;13.13;;
353;SDS011;165;53.592;10.044;2023-03-21T16:32:47;15.53;;;10.67;;
353;SDS011;165;53.592;10.044;2023-03-21T16:35:13;12.87;;;11.27;;
353;SDS011;165;53.592;10.044;2023-03-21T16:37:38;10.53;;;9.20;;